sensor_id;sensor_type;location;lat;lon;timestamp;P1;durP1;ratioP1;P2;durP2;ratioP2
37655;SDS011;23498;50.958;3.124;2022-12-11T00:00:11;42.42;;;18.67;;
37655;SDS011;23498;50.958;3.124;2022-12-11T00:02:40;40.58;;;18.65;;
37655;SDS011;23498;50.958;3.124;2022-12-11T00:05:06;36.33;;;16.23;;
37655;SDS011;23498;50.958;3.124;2022-12-11T00:07:46;34.47;;;17.08;;
37655;SDS011;23498;50.958;3.124;2022-12-11T00:10:12;36.72;;;16.95;;
37655;SDS011;23498;50.958;3.124;2022-12-11T00:12:38;37.55;;;16.52;;
37655;SDS011;23498;50.958;3.124;2022-12-11T00:17:36;42.83;;;16.52;;
37655;SDS011;23498;50.958;3.124;2022-12-11T00:20:02;37.28;;;16.13;;
37655;SDS011;23498;50.958;3.124;2022-12-11T00:22:29;35.33;;;15.70;;
37655;SDS011;23498;50.958;3.124;2022-12-11T00:25:05;31.33;;;15.15;;
37655;SDS011;23498;50.958;3.124;2022-12-11T00:30:00;32.70;;;16.15;;
37655;SDS011;23498;50.958;3.124;2022-12-11T00:32:26;32.80;;;15.85;;
37655;SDS011;23498;50.958;3.124;2022-12-11T00:35:03;35.47;;;15.68;;
37655;SDS011;23498;50.958;3.124;2022-12-11T00:37:29;31.30;;;15.52;;
37655;SDS011;23498;50.958;3.124;2022-12-11T00:40:17;34.70;;;15.63;;
37655;SDS011;23498;50.958;3.124;2022-12-11T00:42:43;34.45;;;16.40;;
37655;SDS011;23498;50.958;3.124;2022-12-11T00:45:12;36.35;;;16.05;;
37655;SDS011;23498;50.958;3.124;2022-12-11T00:47:40;38.72;;;16.52;;
37655;SDS011;23498;50.958;3.124;2022-12-11T00:50:18;37.85;;;16.40;;
37655;SDS011;23498;50.958;3.124;2022-12-11T00:52:47;36.63;;;15.95;;
37655;SDS011;23498;50.958;3.124;2022-12-11T00:55:13;32.75;;;15.52;;
37655;SDS011;23498;50.958;3.124;2022-12-11T00:57:39;32.20;;;16.17;;
37655;SDS011;23498;50.958;3.124;2022-12-11T01:00:25;35.42;;;16.17;;
37655;SDS011;23498;50.958;3.124;2022-12-11T01:02:51;34.60;;;16.02;;
37655;SDS011;23498;50.958;3.124;2022-12-11T01:05:17;31.05;;;14.57;;
37655;SDS011;23498;50.958;3.124;2022-12-11T01:07:43;32.70;;;15.75;;
37655;SDS011;23498;50.958;3.124;2022-12-11T01:10:10;34.03;;;15.63;;
37655;SDS011;23498;50.958;3.124;2022-12-11T01:12:59;32.60;;;15.85;;
37655;SDS011;23498;50.958;3.124;2022-12-11T01:15:29;32.38;;;15.88;;
37655;SDS011;23498;50.958;3.124;2022-12-11T01:18:12;36.03;;;16.17;;
37655;SDS011;23498;50.958;3.124;2022-12-11T01:20:47;34.67;;;16.05;;
37655;SDS011;23498;50.958;3.124;2022-12-11T01:23:13;35.30;;;15.85;;
37655;SDS011;23498;50.958;3.124;2022-12-11T01:25:39;35.00;;;15.88;;
37655;SDS011;23498;50.958;3.124;2022-12-11T01:28:13;31.65;;;15.13;;
37655;SDS011;23498;50.958;3.124;2022-12-11T01:30:40;29.58;;;14.48;;
37655;SDS011;23498;50.958;3.124;2022-12-11T01:33:07;36.00;;;15.40;;
37655;SDS011;23498;50.958;3.124;2022-12-11T01:35:37;33.72;;;15.52;;
37655;SDS011;23498;50.958;3.124;2022-12-11T01:38:04;34.05;;;15.82;;
37655;SDS011;23498;50.958;3.124;2022-12-11T01:40:30;31.98;;;14.57;;
37655;SDS011;23498;50.958;3.124;2022-12-11T01:42:56;38.00;;;16.58;;
37655;SDS011;23498;50.958;3.124;2022-12-11T01:48:08;33.45;;;15.38;;
37655;SDS011;23498;50.958;3.124;2022-12-11T01:51:00;35.17;;;15.90;;
37655;SDS011;23498;50.958;3.124;2022-12-11T01:53:47;35.47;;;16.83;;
37655;SDS011;23498;50.958;3.124;2022-12-11T01:56:44;32.47;;;15.20;;
37655;SDS011;23498;50.958;3.124;2022-12-11T01:59:10;33.92;;;16.35;;
37655;SDS011;23498;50.958;3.124;2022-12-11T02:02:01;35.92;;;15.38;;
37655;SDS011;23498;50.958;3.124;2022-12-11T02:04:43;37.78;;;16.67;;
37655;SDS011;23498;50.958;3.124;2022-12-11T02:07:10;29.75;;;15.18;;
37655;SDS011;23498;50.958;3.124;2022-12-11T02:09:38;34.63;;;16.42;;
37655;SDS011;23498;50.958;3.124;2022-12-11T02:12:14;34.00;;;15.30;;
37655;SDS011;23498;50.958;3.124;2022-12-11T02:20:17;35.63;;;16.15;;
37655;SDS011;23498;50.958;3.124;2022-12-11T02:25:33;33.95;;;16.67;;
37655;SDS011;23498;50.958;3.124;2022-12-11T02:30:47;35.05;;;16.05;;
37655;SDS011;23498;50.958;3.124;2022-12-11T02:33:26;33.78;;;16.75;;
37655;SDS011;23498;50.958;3.124;2022-12-11T02:36:08;36.90;;;16.05;;
37655;SDS011;23498;50.958;3.124;2022-12-11T02:38:50;38.70;;;17.00;;
37655;SDS011;23498;50.958;3.124;2022-12-11T02:41:55;39.20;;;17.55;;
37655;SDS011;23498;50.958;3.124;2022-12-11T02:44:41;38.60;;;16.58;;
37655;SDS011;23498;50.958;3.124;2022-12-11T02:47:28;40.45;;;17.35;;
37655;SDS011;23498;50.958;3.124;2022-12-11T02:50:11;36.75;;;17.73;;
37655;SDS011;23498;50.958;3.124;2022-12-11T02:53:02;38.28;;;17.35;;
37655;SDS011;23498;50.958;3.124;2022-12-11T02:55:49;39.95;;;17.48;;
37655;SDS011;23498;50.958;3.124;2022-12-11T02:58:31;41.10;;;17.73;;
37655;SDS011;23498;50.958;3.124;2022-12-11T03:00:57;37.63;;;18.00;;
37655;SDS011;23498;50.958;3.124;2022-12-11T03:03:23;40.70;;;18.40;;
37655;SDS011;23498;50.958;3.124;2022-12-11T03:05:53;37.72;;;18.08;;
37655;SDS011;23498;50.958;3.124;2022-12-11T03:09:04;39.35;;;17.40;;
37655;SDS011;23498;50.958;3.124;2022-12-11T03:11:30;39.88;;;18.02;;
37655;SDS011;23498;50.958;3.124;2022-12-11T03:13:56;41.22;;;18.38;;
37655;SDS011;23498;50.958;3.124;2022-12-11T03:19:01;45.58;;;19.80;;
37655;SDS011;23498;50.958;3.124;2022-12-11T03:21:43;38.22;;;17.30;;
37655;SDS011;23498;50.958;3.124;2022-12-11T03:24:26;33.92;;;17.30;;
37655;SDS011;23498;50.958;3.124;2022-12-11T03:26:58;41.85;;;17.77;;
37655;SDS011;23498;50.958;3.124;2022-12-11T03:29:41;36.08;;;17.42;;
37655;SDS011;23498;50.958;3.124;2022-12-11T03:32:19;36.50;;;17.30;;
37655;SDS011;23498;50.958;3.124;2022-12-11T03:35:02;39.42;;;18.27;;
37655;SDS011;23498;50.958;3.124;2022-12-11T03:37:45;34.80;;;17.60;;
37655;SDS011;23498;50.958;3.124;2022-12-11T03:40:15;38.88;;;17.95;;
37655;SDS011;23498;50.958;3.124;2022-12-11T03:42:50;34.47;;;16.90;;
37655;SDS011;23498;50.958;3.124;2022-12-11T03:45:19;36.22;;;16.33;;
37655;SDS011;23498;50.958;3.124;2022-12-11T03:48:09;36.40;;;16.25;;
37655;SDS011;23498;50.958;3.124;2022-12-11T03:51:15;36.67;;;17.33;;
37655;SDS011;23498;50.958;3.124;2022-12-11T03:53:42;37.38;;;18.17;;
37655;SDS011;23498;50.958;3.124;2022-12-11T03:56:28;39.65;;;17.73;;
37655;SDS011;23498;50.958;3.124;2022-12-11T03:59:14;36.55;;;18.45;;
37655;SDS011;23498;50.958;3.124;2022-12-11T04:01:40;38.63;;;18.85;;
37655;SDS011;23498;50.958;3.124;2022-12-11T04:04:06;38.30;;;17.83;;
37655;SDS011;23498;50.958;3.124;2022-12-11T04:06:35;36.05;;;17.80;;
37655;SDS011;23498;50.958;3.124;2022-12-11T04:09:01;39.53;;;17.98;;
37655;SDS011;23498;50.958;3.124;2022-12-11T04:11:28;39.47;;;18.23;;
37655;SDS011;23498;50.958;3.124;2022-12-11T04:14:07;40.92;;;19.08;;
37655;SDS011;23498;50.958;3.124;2022-12-11T04:17:07;40.90;;;19.13;;
37655;SDS011;23498;50.958;3.124;2022-12-11T04:19:33;42.20;;;18.50;;
37655;SDS011;23498;50.958;3.124;2022-12-11T04:22:18;39.53;;;18.75;;
37655;SDS011;23498;50.958;3.124;2022-12-11T04:25:03;37.40;;;18.58;;
37655;SDS011;23498;50.958;3.124;2022-12-11T04:28:08;44.58;;;19.88;;
37655;SDS011;23498;50.958;3.124;2022-12-11T04:30:34;37.92;;;19.63;;
37655;SDS011;23498;50.958;3.124;2022-12-11T04:33:00;40.20;;;19.33;;
37655;SDS011;23498;50.958;3.124;2022-12-11T04:35:27;42.70;;;20.33;;
37655;SDS011;23498;50.958;3.124;2022-12-11T04:37:53;38.08;;;18.17;;
37655;SDS011;23498;50.958;3.124;2022-12-11T04:40:19;40.03;;;18.65;;
37655;SDS011;23498;50.958;3.124;2022-12-11T04:42:48;38.15;;;19.23;;
37655;SDS011;23498;50.958;3.124;2022-12-11T04:45:14;38.38;;;18.73;;
37655;SDS011;23498;50.958;3.124;2022-12-11T04:47:40;38.17;;;19.08;;
37655;SDS011;23498;50.958;3.124;2022-12-11T04:50:10;43.50;;;20.05;;
37655;SDS011;23498;50.958;3.124;2022-12-11T04:52:36;42.70;;;19.67;;
37655;SDS011;23498;50.958;3.124;2022-12-11T04:55:03;40.00;;;19.60;;
37655;SDS011;23498;50.958;3.124;2022-12-11T04:57:48;41.22;;;19.80;;
37655;SDS011;23498;50.958;3.124;2022-12-11T05:00:14;39.65;;;19.23;;
37655;SDS011;23498;50.958;3.124;2022-12-11T05:02:41;43.22;;;19.70;;
37655;SDS011;23498;50.958;3.124;2022-12-11T05:05:08;40.95;;;20.27;;
37655;SDS011;23498;50.958;3.124;2022-12-11T05:07:35;40.15;;;19.70;;
37655;SDS011;23498;50.958;3.124;2022-12-11T05:10:01;38.60;;;18.73;;
37655;SDS011;23498;50.958;3.124;2022-12-11T05:12:27;43.75;;;19.58;;
37655;SDS011;23498;50.958;3.124;2022-12-11T05:14:54;36.70;;;18.33;;
37655;SDS011;23498;50.958;3.124;2022-12-11T05:17:20;37.20;;;18.60;;
37655;SDS011;23498;50.958;3.124;2022-12-11T05:20:06;42.15;;;19.15;;
37655;SDS011;23498;50.958;3.124;2022-12-11T05:22:32;39.38;;;19.23;;
37655;SDS011;23498;50.958;3.124;2022-12-11T05:24:58;42.72;;;20.30;;
37655;SDS011;23498;50.958;3.124;2022-12-11T05:27:24;41.75;;;20.92;;
37655;SDS011;23498;50.958;3.124;2022-12-11T05:29:50;39.92;;;19.75;;
37655;SDS011;23498;50.958;3.124;2022-12-11T05:32:36;44.47;;;19.92;;
37655;SDS011;23498;50.958;3.124;2022-12-11T05:35:02;41.60;;;20.58;;
37655;SDS011;23498;50.958;3.124;2022-12-11T05:37:28;37.85;;;19.40;;
37655;SDS011;23498;50.958;3.124;2022-12-11T05:40:11;38.47;;;19.27;;
37655;SDS011;23498;50.958;3.124;2022-12-11T05:42:37;41.17;;;19.77;;
37655;SDS011;23498;50.958;3.124;2022-12-11T05:45:04;38.50;;;18.92;;
37655;SDS011;23498;50.958;3.124;2022-12-11T05:47:34;40.70;;;20.13;;
37655;SDS011;23498;50.958;3.124;2022-12-11T05:50:00;41.60;;;19.80;;
37655;SDS011;23498;50.958;3.124;2022-12-11T05:52:30;40.83;;;18.83;;
37655;SDS011;23498;50.958;3.124;2022-12-11T05:54:57;40.23;;;19.27;;
37655;SDS011;23498;50.958;3.124;2022-12-11T05:57:23;41.72;;;18.95;;
37655;SDS011;23498;50.958;3.124;2022-12-11T05:59:49;43.17;;;19.50;;
37655;SDS011;23498;50.958;3.124;2022-12-11T06:02:15;43.03;;;20.25;;
37655;SDS011;23498;50.958;3.124;2022-12-11T06:04:41;41.35;;;19.33;;
37655;SDS011;23498;50.958;3.124;2022-12-11T06:07:07;42.47;;;19.08;;
37655;SDS011;23498;50.958;3.124;2022-12-11T06:09:33;41.10;;;18.95;;
37655;SDS011;23498;50.958;3.124;2022-12-11T06:11:59;38.20;;;18.80;;
37655;SDS011;23498;50.958;3.124;2022-12-11T06:14:25;43.28;;;19.73;;
37655;SDS011;23498;50.958;3.124;2022-12-11T06:16:51;44.65;;;20.88;;
37655;SDS011;23498;50.958;3.124;2022-12-11T06:19:17;40.30;;;19.40;;
37655;SDS011;23498;50.958;3.124;2022-12-11T06:21:44;36.90;;;17.58;;
37655;SDS011;23498;50.958;3.124;2022-12-11T06:24:10;40.53;;;19.75;;
37655;SDS011;23498;50.958;3.124;2022-12-11T06:26:39;41.05;;;20.27;;
37655;SDS011;23498;50.958;3.124;2022-12-11T06:29:05;38.17;;;19.98;;
37655;SDS011;23498;50.958;3.124;2022-12-11T06:31:47;42.35;;;19.83;;
37655;SDS011;23498;50.958;3.124;2022-12-11T06:34:13;42.88;;;20.35;;
37655;SDS011;23498;50.958;3.124;2022-12-11T06:36:44;40.05;;;20.08;;
37655;SDS011;23498;50.958;3.124;2022-12-11T06:39:10;39.95;;;18.52;;
37655;SDS011;23498;50.958;3.124;2022-12-11T06:41:36;44.05;;;20.52;;
37655;SDS011;23498;50.958;3.124;2022-12-11T06:44:25;40.17;;;18.95;;
37655;SDS011;23498;50.958;3.124;2022-12-11T06:46:51;42.15;;;19.73;;
37655;SDS011;23498;50.958;3.124;2022-12-11T06:54:26;41.88;;;19.40;;
37655;SDS011;23498;50.958;3.124;2022-12-11T06:57:12;41.80;;;19.60;;
37655;SDS011;23498;50.958;3.124;2022-12-11T06:59:58;42.00;;;20.23;;
37655;SDS011;23498;50.958;3.124;2022-12-11T07:02:24;44.13;;;20.27;;
37655;SDS011;23498;50.958;3.124;2022-12-11T07:05:10;46.17;;;20.88;;
37655;SDS011;23498;50.958;3.124;2022-12-11T07:07:56;39.53;;;19.20;;
37655;SDS011;23498;50.958;3.124;2022-12-11T07:10:43;44.45;;;20.77;;
37655;SDS011;23498;50.958;3.124;2022-12-11T07:13:48;42.17;;;19.95;;
37655;SDS011;23498;50.958;3.124;2022-12-11T07:16:40;46.58;;;20.17;;
37655;SDS011;23498;50.958;3.124;2022-12-11T07:19:35;42.80;;;19.75;;
37655;SDS011;23498;50.958;3.124;2022-12-11T07:24:27;43.35;;;19.65;;
37655;SDS011;23498;50.958;3.124;2022-12-11T07:26:53;45.55;;;21.17;;
37655;SDS011;23498;50.958;3.124;2022-12-11T07:29:19;45.65;;;20.65;;
37655;SDS011;23498;50.958;3.124;2022-12-11T07:31:49;46.00;;;20.10;;
37655;SDS011;23498;50.958;3.124;2022-12-11T07:34:15;43.70;;;21.35;;
37655;SDS011;23498;50.958;3.124;2022-12-11T07:37:01;40.63;;;18.52;;
37655;SDS011;23498;50.958;3.124;2022-12-11T07:39:27;44.42;;;20.30;;
37655;SDS011;23498;50.958;3.124;2022-12-11T07:41:56;44.47;;;21.15;;
37655;SDS011;23498;50.958;3.124;2022-12-11T07:44:44;42.10;;;19.95;;
37655;SDS011;23498;50.958;3.124;2022-12-11T07:47:10;51.00;;;22.00;;
37655;SDS011;23498;50.958;3.124;2022-12-11T07:49:36;46.78;;;20.92;;
37655;SDS011;23498;50.958;3.124;2022-12-11T07:52:02;47.13;;;21.95;;
37655;SDS011;23498;50.958;3.124;2022-12-11T07:54:48;48.47;;;22.50;;
37655;SDS011;23498;50.958;3.124;2022-12-11T07:57:34;48.03;;;22.20;;
37655;SDS011;23498;50.958;3.124;2022-12-11T08:00:00;49.03;;;21.95;;
37655;SDS011;23498;50.958;3.124;2022-12-11T08:02:31;47.78;;;23.13;;
37655;SDS011;23498;50.958;3.124;2022-12-11T08:04:57;46.88;;;21.92;;
37655;SDS011;23498;50.958;3.124;2022-12-11T08:07:45;45.38;;;21.85;;
37655;SDS011;23498;50.958;3.124;2022-12-11T08:10:35;50.17;;;22.30;;
37655;SDS011;23498;50.958;3.124;2022-12-11T08:13:36;50.00;;;22.00;;
37655;SDS011;23498;50.958;3.124;2022-12-11T08:16:28;54.30;;;23.70;;
37655;SDS011;23498;50.958;3.124;2022-12-11T08:19:14;49.63;;;21.95;;
37655;SDS011;23498;50.958;3.124;2022-12-11T08:21:47;54.92;;;23.63;;
37655;SDS011;23498;50.958;3.124;2022-12-11T08:24:26;51.67;;;23.05;;
37655;SDS011;23498;50.958;3.124;2022-12-11T08:26:56;53.28;;;24.35;;
37655;SDS011;23498;50.958;3.124;2022-12-11T08:29:24;53.45;;;23.25;;
37655;SDS011;23498;50.958;3.124;2022-12-11T08:32:11;58.33;;;25.60;;
37655;SDS011;23498;50.958;3.124;2022-12-11T08:34:40;57.42;;;23.70;;
37655;SDS011;23498;50.958;3.124;2022-12-11T08:37:06;57.40;;;25.13;;
37655;SDS011;23498;50.958;3.124;2022-12-11T08:39:32;54.80;;;24.45;;
37655;SDS011;23498;50.958;3.124;2022-12-11T08:41:58;57.97;;;24.73;;
37655;SDS011;23498;50.958;3.124;2022-12-11T08:44:24;53.67;;;22.58;;
37655;SDS011;23498;50.958;3.124;2022-12-11T08:46:51;55.92;;;24.40;;
37655;SDS011;23498;50.958;3.124;2022-12-11T08:49:37;53.55;;;24.27;;
37655;SDS011;23498;50.958;3.124;2022-12-11T08:52:06;53.28;;;23.90;;
37655;SDS011;23498;50.958;3.124;2022-12-11T08:54:32;51.58;;;23.58;;
37655;SDS011;23498;50.958;3.124;2022-12-11T08:56:58;50.72;;;23.27;;
37655;SDS011;23498;50.958;3.124;2022-12-11T08:59:24;51.22;;;22.83;;
37655;SDS011;23498;50.958;3.124;2022-12-11T09:01:50;49.67;;;21.70;;
37655;SDS011;23498;50.958;3.124;2022-12-11T09:04:16;44.58;;;20.50;;
37655;SDS011;23498;50.958;3.124;2022-12-11T09:07:02;43.90;;;21.45;;
37655;SDS011;23498;50.958;3.124;2022-12-11T09:09:28;46.35;;;21.77;;
37655;SDS011;23498;50.958;3.124;2022-12-11T09:11:54;47.60;;;22.48;;
37655;SDS011;23498;50.958;3.124;2022-12-11T09:14:21;46.53;;;21.58;;
37655;SDS011;23498;50.958;3.124;2022-12-11T09:16:47;42.97;;;21.13;;
37655;SDS011;23498;50.958;3.124;2022-12-11T09:19:13;49.00;;;21.65;;
37655;SDS011;23498;50.958;3.124;2022-12-11T09:21:40;49.67;;;22.60;;
37655;SDS011;23498;50.958;3.124;2022-12-11T09:24:21;44.50;;;21.70;;
37655;SDS011;23498;50.958;3.124;2022-12-11T09:26:47;45.05;;;21.88;;
37655;SDS011;23498;50.958;3.124;2022-12-11T09:29:33;49.97;;;22.58;;
37655;SDS011;23498;50.958;3.124;2022-12-11T09:32:25;47.88;;;22.70;;
37655;SDS011;23498;50.958;3.124;2022-12-11T09:34:51;47.70;;;21.63;;
37655;SDS011;23498;50.958;3.124;2022-12-11T09:37:17;50.22;;;23.98;;
37655;SDS011;23498;50.958;3.124;2022-12-11T09:39:43;49.72;;;22.63;;
37655;SDS011;23498;50.958;3.124;2022-12-11T09:50:03;53.40;;;24.52;;
37655;SDS011;23498;50.958;3.124;2022-12-11T09:52:33;53.35;;;24.80;;
37655;SDS011;23498;50.958;3.124;2022-12-11T09:55:18;56.30;;;24.67;;
37655;SDS011;23498;50.958;3.124;2022-12-11T10:00:25;55.53;;;23.92;;
37655;SDS011;23498;50.958;3.124;2022-12-11T10:18:42;60.35;;;24.75;;
37655;SDS011;23498;50.958;3.124;2022-12-11T10:21:12;54.15;;;25.33;;
37655;SDS011;23498;50.958;3.124;2022-12-11T10:23:40;55.40;;;25.02;;
37655;SDS011;23498;50.958;3.124;2022-12-11T10:26:27;56.45;;;24.98;;
37655;SDS011;23498;50.958;3.124;2022-12-11T10:28:54;55.83;;;25.67;;
37655;SDS011;23498;50.958;3.124;2022-12-11T10:31:31;54.38;;;24.30;;
37655;SDS011;23498;50.958;3.124;2022-12-11T10:34:03;57.97;;;25.38;;
37655;SDS011;23498;50.958;3.124;2022-12-11T10:36:35;57.75;;;25.20;;
37655;SDS011;23498;50.958;3.124;2022-12-11T10:39:21;52.95;;;23.52;;
37655;SDS011;23498;50.958;3.124;2022-12-11T10:41:48;56.10;;;25.10;;
37655;SDS011;23498;50.958;3.124;2022-12-11T10:44:27;53.60;;;23.88;;
37655;SDS011;23498;50.958;3.124;2022-12-11T10:49:27;49.20;;;24.15;;
37655;SDS011;23498;50.958;3.124;2022-12-11T10:52:00;50.88;;;22.67;;
37655;SDS011;23498;50.958;3.124;2022-12-11T10:54:39;50.53;;;22.00;;
37655;SDS011;23498;50.958;3.124;2022-12-11T10:57:59;45.42;;;20.90;;
37655;SDS011;23498;50.958;3.124;2022-12-11T11:03:19;44.85;;;21.02;;
37655;SDS011;23498;50.958;3.124;2022-12-11T11:08:45;43.22;;;21.50;;
37655;SDS011;23498;50.958;3.124;2022-12-11T11:11:31;42.85;;;20.90;;
37655;SDS011;23498;50.958;3.124;2022-12-11T11:16:34;42.30;;;20.48;;
37655;SDS011;23498;50.958;3.124;2022-12-11T11:19:01;41.67;;;20.27;;
37655;SDS011;23498;50.958;3.124;2022-12-11T11:21:26;42.67;;;21.48;;
37655;SDS011;23498;50.958;3.124;2022-12-11T11:23:54;40.75;;;20.52;;
37655;SDS011;23498;50.958;3.124;2022-12-11T11:26:20;40.30;;;19.50;;
37655;SDS011;23498;50.958;3.124;2022-12-11T11:28:54;44.10;;;21.23;;
37655;SDS011;23498;50.958;3.124;2022-12-11T11:31:32;45.10;;;20.90;;
37655;SDS011;23498;50.958;3.124;2022-12-11T11:34:00;40.92;;;20.08;;
37655;SDS011;23498;50.958;3.124;2022-12-11T11:36:35;38.53;;;19.42;;
37655;SDS011;23498;50.958;3.124;2022-12-11T11:44:36;40.90;;;19.67;;
37655;SDS011;23498;50.958;3.124;2022-12-11T11:47:22;44.63;;;20.05;;
37655;SDS011;23498;50.958;3.124;2022-12-11T11:50:10;39.42;;;18.75;;
37655;SDS011;23498;50.958;3.124;2022-12-11T11:55:36;43.90;;;19.33;;
37655;SDS011;23498;50.958;3.124;2022-12-11T11:58:16;39.67;;;18.92;;
37655;SDS011;23498;50.958;3.124;2022-12-11T12:01:18;44.40;;;19.38;;
37655;SDS011;23498;50.958;3.124;2022-12-11T12:03:44;44.17;;;20.02;;
37655;SDS011;23498;50.958;3.124;2022-12-11T12:14:27;43.72;;;19.92;;
37655;SDS011;23498;50.958;3.124;2022-12-11T12:17:00;47.60;;;22.08;;
37655;SDS011;23498;50.958;3.124;2022-12-11T12:19:37;44.13;;;20.58;;
37655;SDS011;23498;50.958;3.124;2022-12-11T12:25:22;44.58;;;19.58;;
37655;SDS011;23498;50.958;3.124;2022-12-11T12:33:25;46.78;;;21.70;;
37655;SDS011;23498;50.958;3.124;2022-12-11T12:36:31;45.40;;;21.17;;
37655;SDS011;23498;50.958;3.124;2022-12-11T12:44:23;40.45;;;19.30;;
37655;SDS011;23498;50.958;3.124;2022-12-11T12:46:51;42.28;;;20.88;;
37655;SDS011;23498;50.958;3.124;2022-12-11T12:49:55;44.28;;;19.88;;
37655;SDS011;23498;50.958;3.124;2022-12-11T12:52:41;43.72;;;19.85;;
37655;SDS011;23498;50.958;3.124;2022-12-11T12:58:03;37.25;;;18.55;;
37655;SDS011;23498;50.958;3.124;2022-12-11T13:00:48;41.03;;;18.48;;
37655;SDS011;23498;50.958;3.124;2022-12-11T13:03:47;39.67;;;18.83;;
37655;SDS011;23498;50.958;3.124;2022-12-11T13:06:15;38.40;;;17.90;;
37655;SDS011;23498;50.958;3.124;2022-12-11T13:08:48;38.28;;;19.80;;
37655;SDS011;23498;50.958;3.124;2022-12-11T13:11:29;35.42;;;17.88;;
37655;SDS011;23498;50.958;3.124;2022-12-11T13:16:40;35.97;;;18.65;;
37655;SDS011;23498;50.958;3.124;2022-12-11T13:24:25;35.65;;;18.05;;
37655;SDS011;23498;50.958;3.124;2022-12-11T13:26:52;32.92;;;17.13;;
37655;SDS011;23498;50.958;3.124;2022-12-11T13:32:01;32.60;;;17.70;;
37655;SDS011;23498;50.958;3.124;2022-12-11T13:34:30;33.00;;;17.25;;
37655;SDS011;23498;50.958;3.124;2022-12-11T13:36:57;38.10;;;18.48;;
37655;SDS011;23498;50.958;3.124;2022-12-11T13:39:28;36.45;;;18.02;;
37655;SDS011;23498;50.958;3.124;2022-12-11T13:42:02;36.95;;;17.55;;
37655;SDS011;23498;50.958;3.124;2022-12-11T13:44:36;34.22;;;17.17;;
37655;SDS011;23498;50.958;3.124;2022-12-11T13:47:05;35.60;;;17.60;;
37655;SDS011;23498;50.958;3.124;2022-12-11T13:49:47;34.97;;;17.10;;
37655;SDS011;23498;50.958;3.124;2022-12-11T13:52:36;36.70;;;19.02;;
37655;SDS011;23498;50.958;3.124;2022-12-11T13:55:12;37.15;;;18.02;;
37655;SDS011;23498;50.958;3.124;2022-12-11T13:57:44;33.67;;;16.98;;
37655;SDS011;23498;50.958;3.124;2022-12-11T14:00:29;33.47;;;16.15;;
37655;SDS011;23498;50.958;3.124;2022-12-11T14:03:06;32.20;;;15.60;;
37655;SDS011;23498;50.958;3.124;2022-12-11T14:05:32;28.55;;;15.25;;
37655;SDS011;23498;50.958;3.124;2022-12-11T14:08:00;29.65;;;16.05;;
37655;SDS011;23498;50.958;3.124;2022-12-11T14:10:31;33.78;;;17.85;;
37655;SDS011;23498;50.958;3.124;2022-12-11T14:13:01;30.50;;;16.58;;
37655;SDS011;23498;50.958;3.124;2022-12-11T14:15:28;31.45;;;15.68;;
37655;SDS011;23498;50.958;3.124;2022-12-11T14:17:54;30.67;;;17.20;;
37655;SDS011;23498;50.958;3.124;2022-12-11T14:20:22;29.90;;;15.77;;
37655;SDS011;23498;50.958;3.124;2022-12-11T14:22:49;34.88;;;17.65;;
37655;SDS011;23498;50.958;3.124;2022-12-11T14:25:25;29.30;;;15.98;;
37655;SDS011;23498;50.958;3.124;2022-12-11T14:27:53;28.80;;;15.35;;
37655;SDS011;23498;50.958;3.124;2022-12-11T14:30:21;29.23;;;16.27;;
37655;SDS011;23498;50.958;3.124;2022-12-11T14:32:48;31.33;;;15.52;;
37655;SDS011;23498;50.958;3.124;2022-12-11T14:35:25;28.15;;;15.35;;
37655;SDS011;23498;50.958;3.124;2022-12-11T14:38:01;29.25;;;15.63;;
37655;SDS011;23498;50.958;3.124;2022-12-11T14:40:30;27.80;;;14.27;;
37655;SDS011;23498;50.958;3.124;2022-12-11T14:43:03;28.17;;;14.93;;
37655;SDS011;23498;50.958;3.124;2022-12-11T14:45:33;28.25;;;15.30;;
37655;SDS011;23498;50.958;3.124;2022-12-11T14:48:20;27.23;;;14.15;;
37655;SDS011;23498;50.958;3.124;2022-12-11T14:50:49;27.38;;;15.43;;
37655;SDS011;23498;50.958;3.124;2022-12-11T14:53:18;27.45;;;15.02;;
37655;SDS011;23498;50.958;3.124;2022-12-11T14:55:54;28.63;;;14.68;;
37655;SDS011;23498;50.958;3.124;2022-12-11T14:58:23;25.63;;;14.70;;
37655;SDS011;23498;50.958;3.124;2022-12-11T15:00:57;29.10;;;15.13;;
37655;SDS011;23498;50.958;3.124;2022-12-11T15:03:23;25.67;;;14.15;;
37655;SDS011;23498;50.958;3.124;2022-12-11T15:06:23;27.60;;;14.65;;
37655;SDS011;23498;50.958;3.124;2022-12-11T15:12:09;24.33;;;14.10;;
37655;SDS011;23498;50.958;3.124;2022-12-11T15:14:39;27.83;;;14.15;;
37655;SDS011;23498;50.958;3.124;2022-12-11T15:17:09;26.00;;;14.20;;
37655;SDS011;23498;50.958;3.124;2022-12-11T15:19:37;23.95;;;13.68;;
37655;SDS011;23498;50.958;3.124;2022-12-11T15:22:08;26.90;;;14.40;;
37655;SDS011;23498;50.958;3.124;2022-12-11T15:24:53;26.35;;;13.90;;
37655;SDS011;23498;50.958;3.124;2022-12-11T15:27:31;24.92;;;13.43;;
37655;SDS011;23498;50.958;3.124;2022-12-11T15:32:47;25.60;;;13.48;;
37655;SDS011;23498;50.958;3.124;2022-12-11T15:35:23;24.98;;;13.18;;
37655;SDS011;23498;50.958;3.124;2022-12-11T15:37:54;25.50;;;13.48;;
37655;SDS011;23498;50.958;3.124;2022-12-11T15:40:20;23.98;;;13.05;;
37655;SDS011;23498;50.958;3.124;2022-12-11T15:42:46;24.73;;;12.65;;
37655;SDS011;23498;50.958;3.124;2022-12-11T15:45:19;23.58;;;13.75;;
37655;SDS011;23498;50.958;3.124;2022-12-11T15:47:46;24.67;;;13.07;;
37655;SDS011;23498;50.958;3.124;2022-12-11T15:50:23;25.05;;;13.20;;
37655;SDS011;23498;50.958;3.124;2022-12-11T15:52:50;24.58;;;13.35;;
37655;SDS011;23498;50.958;3.124;2022-12-11T15:55:24;26.23;;;14.07;;
37655;SDS011;23498;50.958;3.124;2022-12-11T15:57:52;26.98;;;13.85;;
37655;SDS011;23498;50.958;3.124;2022-12-11T16:00:19;28.17;;;15.20;;
37655;SDS011;23498;50.958;3.124;2022-12-11T16:02:46;26.05;;;14.88;;
37655;SDS011;23498;50.958;3.124;2022-12-11T16:05:12;28.25;;;14.48;;
37655;SDS011;23498;50.958;3.124;2022-12-11T16:07:38;28.65;;;15.05;;
37655;SDS011;23498;50.958;3.124;2022-12-11T16:10:05;27.55;;;14.80;;
37655;SDS011;23498;50.958;3.124;2022-12-11T16:12:32;26.63;;;14.27;;
37655;SDS011;23498;50.958;3.124;2022-12-11T16:14:58;26.17;;;15.15;;
37655;SDS011;23498;50.958;3.124;2022-12-11T16:17:25;27.05;;;15.07;;
37655;SDS011;23498;50.958;3.124;2022-12-11T16:19:52;27.65;;;15.45;;
37655;SDS011;23498;50.958;3.124;2022-12-11T16:22:18;28.88;;;15.40;;
37655;SDS011;23498;50.958;3.124;2022-12-11T16:24:44;26.50;;;14.50;;
37655;SDS011;23498;50.958;3.124;2022-12-11T16:27:10;29.27;;;14.95;;
37655;SDS011;23498;50.958;3.124;2022-12-11T16:29:36;27.35;;;15.60;;
37655;SDS011;23498;50.958;3.124;2022-12-11T16:32:14;31.10;;;16.27;;
37655;SDS011;23498;50.958;3.124;2022-12-11T16:34:40;30.45;;;15.63;;
37655;SDS011;23498;50.958;3.124;2022-12-11T16:37:26;29.15;;;16.73;;
37655;SDS011;23498;50.958;3.124;2022-12-11T16:39:52;32.22;;;16.88;;
37655;SDS011;23498;50.958;3.124;2022-12-11T16:42:18;28.60;;;15.73;;
37655;SDS011;23498;50.958;3.124;2022-12-11T16:44:44;31.67;;;16.23;;
37655;SDS011;23498;50.958;3.124;2022-12-11T16:47:10;29.45;;;17.02;;
37655;SDS011;23498;50.958;3.124;2022-12-11T16:49:36;31.42;;;16.90;;
37655;SDS011;23498;50.958;3.124;2022-12-11T16:52:02;43.22;;;24.52;;